createdAt,value
2023-04-27T00:01:26.957Z,11.48
2023-04-27T00:04:30.868Z,11.44
2023-04-27T00:07:34.609Z,11.34
2023-04-27T00:10:38.211Z,11.41
2023-04-27T00:13:41.756Z,11.81
2023-04-27T00:16:45.345Z,12.10
2023-04-27T00:19:49.033Z,12.06
2023-04-27T00:22:52.511Z,12.09
2023-04-27T00:25:55.413Z,12.18
2023-04-27T00:28:59.455Z,12.39
2023-04-27T00:32:03.169Z,12.38
2023-04-27T00:35:07.982Z,12.56
2023-04-27T00:38:12.248Z,12.27
2023-04-27T00:41:16.003Z,12.21
2023-04-27T00:44:26.961Z,12.55
2023-04-27T00:47:31.939Z,12.51
2023-04-27T00:50:36.504Z,12.43
2023-04-27T00:53:40.182Z,12.45
2023-04-27T00:56:45.200Z,12.53
2023-04-27T00:59:48.747Z,12.57
2023-04-27T01:02:53.889Z,12.80
2023-04-27T01:05:59.846Z,12.98
2023-04-27T01:09:05.936Z,12.97
2023-04-27T01:12:09.612Z,12.98
2023-04-27T01:15:13.024Z,13.34
2023-04-27T01:18:16.354Z,13.27
2023-04-27T01:21:19.773Z,13.39
2023-04-27T01:24:23.562Z,13.21
2023-04-27T01:27:27.186Z,13.31
2023-04-27T01:30:31.269Z,13.41
2023-04-27T01:33:35.723Z,13.59
2023-04-27T01:36:39.405Z,13.84
2023-04-27T01:39:42.817Z,13.76
2023-04-27T01:42:46.448Z,13.52
2023-04-27T01:45:50.473Z,13.42
2023-04-27T01:48:53.778Z,13.50
2023-04-27T01:51:57.143Z,13.73
2023-04-27T01:55:01.283Z,13.64
2023-04-27T01:58:05.074Z,13.67
2023-04-27T02:01:09.441Z,13.65
2023-04-27T02:04:12.798Z,13.77
2023-04-27T02:07:16.261Z,14.15
2023-04-27T02:10:19.448Z,14.34
2023-04-27T02:13:22.874Z,14.28
2023-04-27T02:16:26.524Z,13.82
2023-04-27T02:19:31.664Z,14.02
2023-04-27T02:22:36.146Z,14.13
2023-04-27T02:25:39.917Z,14.35
2023-04-27T02:28:44.217Z,14.27
2023-04-27T02:31:47.524Z,14.29
2023-04-27T02:34:51.989Z,14.39
2023-04-27T02:37:55.615Z,14.52
2023-04-27T02:41:00.310Z,14.70
2023-04-27T02:44:04.608Z,14.98
2023-04-27T02:47:08.521Z,15.07
2023-04-27T02:50:43.212Z,15.23
2023-04-27T02:53:46.371Z,15.34
2023-04-27T02:56:50.366Z,15.45
2023-04-27T02:59:53.234Z,15.66
2023-04-27T03:02:57.545Z,15.72
2023-04-27T03:06:00.591Z,15.62
2023-04-27T03:09:04.554Z,15.97
2023-04-27T03:12:07.403Z,16.01
2023-04-27T03:15:11.109Z,16.11
2023-04-27T03:18:14.709Z,16.16
2023-04-27T03:21:17.654Z,16.07
2023-04-27T03:24:20.873Z,16.43
2023-04-27T03:27:25.643Z,16.59
2023-04-27T03:30:28.598Z,16.54
2023-04-27T03:33:32.600Z,16.66
2023-04-27T03:36:36.734Z,16.54
2023-04-27T03:39:39.816Z,15.84
2023-04-27T03:42:42.981Z,15.85
2023-04-27T03:45:46.776Z,16.26
2023-04-27T03:48:50.945Z,16.17
2023-04-27T03:51:54.739Z,16.07
2023-04-27T03:54:57.743Z,15.83
2023-04-27T03:58:00.660Z,15.76
2023-04-27T04:01:05.426Z,15.84
2023-04-27T04:04:08.655Z,16.07
2023-04-27T04:07:12.437Z,16.38
2023-04-27T04:10:16.889Z,16.02
2023-04-27T04:13:22.305Z,15.95
2023-04-27T04:16:25.348Z,15.90
2023-04-27T04:19:29.782Z,15.75
2023-04-27T04:22:33.116Z,15.91
2023-04-27T04:25:37.266Z,15.69
2023-04-27T04:28:40.920Z,15.32
2023-04-27T04:31:45.541Z,15.44
2023-04-27T04:34:51.845Z,15.76
2023-04-27T04:37:57.120Z,15.73
2023-04-27T04:41:00.992Z,15.59
2023-04-27T04:44:07.731Z,15.25
2023-04-27T04:47:10.756Z,15.22
2023-04-27T04:50:15.056Z,14.85
2023-04-27T04:53:18.856Z,14.71
2023-04-27T04:56:22.972Z,14.70
2023-04-27T04:59:30.380Z,14.55
2023-04-27T05:02:35.369Z,14.60
2023-04-27T05:05:38.477Z,14.57
2023-04-27T05:08:42.246Z,14.70
2023-04-27T05:11:46.110Z,15.02
2023-04-27T05:14:49.096Z,15.13
2023-04-27T05:17:51.891Z,14.43
2023-04-27T05:20:54.767Z,14.34
2023-04-27T05:23:58.407Z,14.63
2023-04-27T05:27:02.487Z,14.77
2023-04-27T05:30:05.905Z,14.73
2023-04-27T05:33:09.690Z,14.84
2023-04-27T05:36:13.341Z,14.64
2023-04-27T05:39:16.696Z,14.43
2023-04-27T05:42:20.293Z,14.62
2023-04-27T05:45:23.832Z,14.74
2023-04-27T05:48:27.458Z,14.79
2023-04-27T05:51:31.730Z,14.91
2023-04-27T05:54:34.994Z,14.87
2023-04-27T05:57:38.663Z,14.77
2023-04-27T06:00:42.784Z,14.87
2023-04-27T06:03:46.653Z,15.15
2023-04-27T06:06:50.326Z,15.01
2023-04-27T06:09:53.973Z,14.77
2023-04-27T06:12:57.015Z,14.04
2023-04-27T06:16:02.163Z,13.78
2023-04-27T06:19:05.700Z,13.89
2023-04-27T06:22:09.305Z,14.37
2023-04-27T06:25:13.516Z,14.84
2023-04-27T06:28:17.455Z,15.43
2023-04-27T06:31:21.285Z,15.63
2023-04-27T06:34:24.592Z,15.74
2023-04-27T06:37:28.300Z,15.67
2023-04-27T06:40:32.464Z,15.75
2023-04-27T06:43:36.208Z,15.63
2023-04-27T06:46:39.709Z,15.51
2023-04-27T06:49:43.299Z,15.44
2023-04-27T06:52:47.355Z,15.60
2023-04-27T06:55:51.528Z,15.26
2023-04-27T06:58:54.825Z,15.19
2023-04-27T07:01:58.506Z,15.31
2023-04-27T07:05:01.854Z,15.60
2023-04-27T07:08:07.899Z,15.73
2023-04-27T07:11:12.075Z,15.65
2023-04-27T07:14:15.307Z,15.15
2023-04-27T07:17:19.170Z,15.17
2023-04-27T07:20:22.112Z,15.32
2023-04-27T07:23:26.586Z,15.33
2023-04-27T07:26:32.481Z,15.61
2023-04-27T07:29:38.662Z,15.48
2023-04-27T07:32:42.789Z,15.60
2023-04-27T07:35:46.022Z,15.63
2023-04-27T07:38:50.349Z,15.71
2023-04-27T07:41:54.921Z,15.66
2023-04-27T07:44:57.978Z,15.55
2023-04-27T07:48:02.691Z,15.43
2023-04-27T07:51:06.555Z,15.05
2023-04-27T07:54:10.238Z,14.98
2023-04-27T07:57:14.051Z,14.95
2023-04-27T08:00:18.746Z,14.89
2023-04-27T08:03:23.658Z,14.74
2023-04-27T08:06:29.833Z,14.74
2023-04-27T08:09:33.850Z,14.80
2023-04-27T08:12:37.561Z,14.92
2023-04-27T08:15:41.147Z,14.97
2023-04-27T08:18:45.875Z,15.23
2023-04-27T08:21:49.685Z,15.33
2023-04-27T08:24:53.161Z,15.37
2023-04-27T08:27:56.740Z,15.52
2023-04-27T08:31:01.101Z,15.31
2023-04-27T08:34:04.713Z,15.12
2023-04-27T08:37:09.401Z,14.99
2023-04-27T08:40:13.627Z,14.81
2023-04-27T08:43:17.901Z,14.63
2023-04-27T08:46:27.690Z,14.60
2023-04-27T08:49:30.659Z,14.61
2023-04-27T08:52:33.739Z,14.45
2023-04-27T08:55:36.670Z,14.38
2023-04-27T08:58:40.329Z,14.39
2023-04-27T09:01:49.582Z,14.41
2023-04-27T09:04:52.999Z,14.25
2023-04-27T09:08:00.453Z,14.05
2023-04-27T09:11:04.088Z,13.99
2023-04-27T09:14:22.199Z,14.04
2023-04-27T09:17:29.510Z,13.96
2023-04-27T09:20:32.861Z,13.83
2023-04-27T09:23:42.275Z,13.60
2023-04-27T09:26:51.082Z,13.54
2023-04-27T09:29:54.721Z,13.53
2023-04-27T09:33:02.150Z,13.65
2023-04-27T09:36:07.466Z,13.68
2023-04-27T09:39:12.128Z,13.56
2023-04-27T09:42:16.665Z,13.36
2023-04-27T09:45:21.102Z,13.34
2023-04-27T09:48:26.239Z,13.43
2023-04-27T09:51:29.613Z,13.34
2023-04-27T09:54:35.017Z,13.19
2023-04-27T09:57:51.011Z,13.05
2023-04-27T10:01:09.377Z,13.04
2023-04-27T10:04:32.518Z,13.15
2023-04-27T10:07:36.550Z,13.13
2023-04-27T10:10:54.818Z,13.14
2023-04-27T10:14:08.702Z,12.92
2023-04-27T10:17:12.731Z,12.70
2023-04-27T10:20:18.350Z,12.72
2023-04-27T10:23:26.989Z,12.78
2023-04-27T10:26:30.663Z,12.77
2023-04-27T10:29:44.490Z,12.77
2023-04-27T10:32:59.266Z,12.64
2023-04-27T10:36:02.365Z,12.56
2023-04-27T10:39:32.609Z,12.54
2023-04-27T10:42:44.374Z,12.32
2023-04-27T10:45:47.800Z,12.11
2023-04-27T10:48:51.556Z,11.96
2023-04-27T10:51:57.728Z,11.71
2023-04-27T10:55:13.856Z,11.58
2023-04-27T10:58:25.442Z,11.44
2023-04-27T11:01:32.576Z,11.30
2023-04-27T11:04:45.104Z,11.26
2023-04-27T11:07:48.874Z,11.18
2023-04-27T11:10:53.355Z,11.11
2023-04-27T11:13:59.064Z,11.06
2023-04-27T11:17:02.059Z,10.97
2023-04-27T11:20:09.101Z,10.88
2023-04-27T11:23:12.733Z,10.85
2023-04-27T11:26:21.989Z,10.79
2023-04-27T11:29:25.888Z,10.76
2023-04-27T11:32:29.005Z,10.67
2023-04-27T11:35:36.056Z,10.59
2023-04-27T11:38:43.051Z,10.53
2023-04-27T11:41:47.079Z,10.47
2023-04-27T11:45:06.548Z,10.43
2023-04-27T11:48:15.345Z,10.37
2023-04-27T11:51:18.403Z,10.32
2023-04-27T11:54:29.429Z,10.29
2023-04-27T11:57:35.660Z,10.24
2023-04-27T12:00:39.331Z,10.13
2023-04-27T12:03:43.100Z,10.00
2023-04-27T12:06:46.854Z,9.87
2023-04-27T12:09:51.046Z,9.80
2023-04-27T12:12:54.715Z,9.79
2023-04-27T12:15:59.730Z,9.74
2023-04-27T12:19:04.020Z,9.62
2023-04-27T12:22:07.130Z,9.57
2023-04-27T12:25:10.417Z,9.50
2023-04-27T12:28:19.398Z,9.35
2023-04-27T12:31:26.932Z,9.15
2023-04-27T12:34:31.769Z,9.06
2023-04-27T12:37:36.151Z,8.90
2023-04-27T12:40:39.767Z,8.75
2023-04-27T12:43:44.166Z,8.54
2023-04-27T12:46:51.696Z,8.31
2023-04-27T12:49:54.752Z,8.24
2023-04-27T12:53:00.700Z,8.22
2023-04-27T12:56:05.256Z,8.16
2023-04-27T12:59:09.320Z,8.10
2023-04-27T13:02:13.447Z,8.02
2023-04-27T13:05:17.183Z,7.79
2023-04-27T13:08:21.476Z,7.46
2023-04-27T13:11:25.912Z,7.22
2023-04-27T13:14:29.527Z,7.08
2023-04-27T13:21:24.534Z,6.97
2023-04-27T13:24:30.695Z,6.90
2023-04-27T13:27:34.090Z,6.72
2023-04-27T13:30:40.097Z,6.62
2023-04-27T13:33:45.363Z,6.44
2023-04-27T13:36:49.508Z,6.39
2023-04-27T13:39:53.490Z,6.32
2023-04-27T13:42:57.070Z,6.17
2023-04-27T13:46:01.946Z,6.02
2023-04-27T13:49:05.241Z,5.91
2023-04-27T13:52:08.520Z,5.81
2023-04-27T13:55:12.110Z,5.57
2023-04-27T13:58:15.437Z,5.39
2023-04-27T14:01:19.197Z,5.46
2023-04-27T14:04:22.288Z,5.47
2023-04-27T14:07:25.588Z,5.47
2023-04-27T14:10:28.570Z,5.38
2023-04-27T14:13:32.308Z,5.30
2023-04-27T14:16:35.337Z,5.46
2023-04-27T14:19:39.057Z,5.58
2023-04-27T14:22:42.166Z,5.44
2023-04-27T14:25:45.083Z,5.36
2023-04-27T14:28:48.599Z,5.40
2023-04-27T14:31:53.661Z,5.39
2023-04-27T14:34:58.572Z,5.23
2023-04-27T14:38:02.925Z,5.26
2023-04-27T14:41:10.115Z,5.24
2023-04-27T14:44:13.393Z,5.22
2023-04-27T14:47:17.858Z,5.12
2023-04-27T14:50:20.954Z,5.12
2023-04-27T14:53:24.321Z,5.18
2023-04-27T14:56:27.933Z,5.20
2023-04-27T14:59:31.653Z,5.15
2023-04-27T15:02:35.183Z,5.14
2023-04-27T15:05:38.140Z,5.16
2023-04-27T15:08:41.799Z,5.00
2023-04-27T15:11:45.113Z,4.82
2023-04-27T15:14:50.613Z,4.71
2023-04-27T15:17:54.282Z,4.75
2023-04-27T15:20:58.701Z,4.77
2023-04-27T15:24:02.639Z,4.64
2023-04-27T15:27:08.380Z,4.49
2023-04-27T15:30:15.725Z,4.40
2023-04-27T15:33:19.400Z,4.36
2023-04-27T15:36:24.035Z,4.34
2023-04-27T15:39:28.704Z,4.21
2023-04-27T15:42:32.690Z,4.21
2023-04-27T15:45:35.603Z,4.17
2023-04-27T15:48:38.917Z,4.15
2023-04-27T15:51:42.588Z,4.19
2023-04-27T15:54:46.256Z,4.20
2023-04-27T15:57:51.158Z,4.16
2023-04-27T16:00:54.734Z,4.13
2023-04-27T16:03:58.465Z,4.05
2023-04-27T16:07:02.237Z,3.95
2023-04-27T16:10:07.704Z,3.91
2023-04-27T16:13:11.736Z,3.91
2023-04-27T16:16:15.740Z,3.89
2023-04-27T16:19:19.917Z,3.80
2023-04-27T16:22:24.266Z,3.68
2023-04-27T16:25:27.829Z,3.54
2023-04-27T16:28:32.964Z,3.45
2023-04-27T16:31:36.119Z,3.45
2023-04-27T16:34:40.249Z,3.44
2023-04-27T16:37:43.869Z,3.34
2023-04-27T16:40:47.885Z,3.28
2023-04-27T16:43:51.626Z,3.21
2023-04-27T16:46:54.942Z,3.22
2023-04-27T16:49:58.790Z,3.08
2023-04-27T16:53:12.102Z,3.04
2023-04-27T16:56:15.623Z,3.03
2023-04-27T16:59:18.480Z,3.02
2023-04-27T17:02:25.168Z,2.96
2023-04-27T17:05:29.677Z,2.86
2023-04-27T17:08:33.117Z,2.88
2023-04-27T17:11:37.709Z,2.93
2023-04-27T17:14:41.092Z,2.98
2023-04-27T17:17:45.124Z,3.00
2023-04-27T17:20:48.338Z,2.89
2023-04-27T17:23:54.139Z,2.79
2023-04-27T17:26:57.174Z,2.86
2023-04-27T17:30:00.058Z,2.82
2023-04-27T17:33:04.192Z,2.91
2023-04-27T17:36:07.783Z,2.82
2023-04-27T17:39:13.385Z,2.77
2023-04-27T17:42:17.788Z,2.85
2023-04-27T17:45:21.566Z,2.86
2023-04-27T17:48:25.624Z,2.70
2023-04-27T17:51:29.341Z,2.68
2023-04-27T17:54:32.802Z,2.66
2023-04-27T17:57:36.643Z,2.60
2023-04-27T18:00:42.038Z,2.67
2023-04-27T18:03:46.224Z,2.60
2023-04-27T18:06:49.846Z,2.53
2023-04-27T18:09:53.547Z,2.59
2023-04-27T18:12:56.658Z,2.63
2023-04-27T18:16:00.704Z,2.66
2023-04-27T18:19:04.403Z,2.63
2023-04-27T18:22:08.001Z,2.62
2023-04-27T18:25:11.892Z,2.57
2023-04-27T18:28:16.462Z,2.63
2023-04-27T18:31:21.011Z,2.71
2023-04-27T18:34:24.938Z,2.79
2023-04-27T18:37:27.957Z,2.77
2023-04-27T18:40:33.358Z,2.72
2023-04-27T18:43:40.170Z,2.69
2023-04-27T18:46:45.126Z,2.61
2023-04-27T18:49:49.040Z,2.66
2023-04-27T18:52:52.082Z,2.64
2023-04-27T18:55:56.039Z,2.58
2023-04-27T18:59:01.355Z,2.52
2023-04-27T19:02:05.385Z,2.46
2023-04-27T19:05:13.116Z,2.36
2023-04-27T19:08:17.294Z,2.20
2023-04-27T19:11:22.943Z,2.17
2023-04-27T19:14:26.365Z,2.11
2023-04-27T19:17:29.329Z,2.04
2023-04-27T19:20:32.370Z,2.03
2023-04-27T19:23:36.412Z,1.99
2023-04-27T19:26:40.436Z,1.94
2023-04-27T19:29:52.754Z,1.91
2023-04-27T19:32:56.406Z,1.87
2023-04-27T19:36:00.021Z,1.92
2023-04-27T19:39:04.462Z,1.94
2023-04-27T19:42:08.054Z,1.84
2023-04-27T19:45:12.292Z,1.70
2023-04-27T19:48:15.727Z,1.67
2023-04-27T19:51:19.648Z,1.69
2023-04-27T19:54:22.459Z,1.62
2023-04-27T19:57:25.379Z,1.59
2023-04-27T20:00:28.717Z,1.59
2023-04-27T20:03:32.132Z,1.52
2023-04-27T20:06:36.147Z,1.43
2023-04-27T20:09:39.705Z,1.35
2023-04-27T20:12:55.447Z,1.32
2023-04-27T20:16:00.434Z,1.34
2023-04-27T20:19:05.845Z,1.20
2023-04-27T20:22:10.393Z,0.95
2023-04-27T20:25:15.070Z,0.92
2023-04-27T20:28:19.500Z,0.97
2023-04-27T20:31:22.366Z,0.95
2023-04-27T20:34:25.938Z,0.88
2023-04-27T20:37:28.893Z,0.86
2023-04-27T20:40:32.413Z,0.86
2023-04-27T20:43:36.000Z,0.97
2023-04-27T20:46:39.939Z,0.86
2023-04-27T20:49:43.586Z,0.80
2023-04-27T20:52:46.795Z,0.86
2023-04-27T20:55:50.964Z,0.90
2023-04-27T20:58:54.289Z,0.88
2023-04-27T21:01:57.188Z,0.81
2023-04-27T21:04:59.985Z,0.79
2023-04-27T21:08:03.370Z,0.83
2023-04-27T21:11:06.968Z,0.81
2023-04-27T21:14:09.936Z,0.85
2023-04-27T21:17:15.628Z,0.93
2023-04-27T21:20:18.629Z,0.92
2023-04-27T21:23:21.731Z,0.97
2023-04-27T21:26:24.679Z,1.03
2023-04-27T21:29:28.551Z,1.14
2023-04-27T21:32:32.191Z,1.34
2023-04-27T21:35:36.186Z,1.56
2023-04-27T21:38:39.222Z,1.79
2023-04-27T21:41:43.090Z,1.91
2023-04-27T21:44:47.410Z,2.07
2023-04-27T21:47:50.487Z,2.24
2023-04-27T21:50:53.485Z,2.36
2023-04-27T21:53:56.571Z,2.36
2023-04-27T21:56:59.753Z,2.30
2023-04-27T22:00:08.600Z,2.25
2023-04-27T22:03:20.681Z,2.23
2023-04-27T22:06:24.449Z,2.19
2023-04-27T22:09:27.354Z,1.98
2023-04-27T22:12:31.068Z,1.91
2023-04-27T22:15:34.432Z,1.83
2023-04-27T22:18:37.834Z,1.83
2023-04-27T22:21:40.796Z,1.92
2023-04-27T22:24:44.371Z,2.03
2023-04-27T22:27:48.205Z,2.18
2023-04-27T22:30:51.159Z,2.22
2023-04-27T22:33:54.078Z,2.34
2023-04-27T22:36:57.587Z,2.32
2023-04-27T22:40:00.633Z,2.33
2023-04-27T22:43:04.490Z,2.40
2023-04-27T22:46:07.500Z,2.51
2023-04-27T22:49:11.066Z,2.85
2023-04-27T22:52:14.723Z,5.58
2023-04-27T22:55:17.612Z,9.02
2023-04-27T22:58:20.551Z,10.86
2023-04-27T23:01:25.109Z,12.32
2023-04-27T23:04:30.042Z,13.12
2023-04-27T23:07:32.953Z,13.85
2023-04-27T23:10:39.215Z,15.08
2023-04-27T23:13:42.106Z,15.85
2023-04-27T23:16:48.129Z,16.44
2023-04-27T23:19:51.132Z,16.65
2023-04-27T23:22:54.510Z,17.00
2023-04-27T23:25:57.483Z,17.27
2023-04-27T23:29:01.454Z,17.39
2023-04-27T23:32:05.346Z,17.97
2023-04-27T23:35:09.462Z,18.52
2023-04-27T23:38:13.164Z,18.84
2023-04-27T23:41:16.139Z,19.26
2023-04-27T23:44:19.409Z,18.69
2023-04-27T23:47:22.355Z,18.74
2023-04-27T23:50:26.045Z,18.93
2023-04-27T23:53:30.046Z,18.73
2023-04-27T23:56:33.294Z,19.13
2023-04-27T23:59:36.523Z,19.67
